sensor_id;sensor_type;location;lat;lon;timestamp;temperature;humidity
36442;DHT22;64346;50.820;16.274;2022-12-11T00:02:03;0.50;99.90
36442;DHT22;64346;50.820;16.274;2022-12-11T00:04:32;0.50;99.90
36442;DHT22;64346;50.820;16.274;2022-12-11T00:06:59;0.50;99.90
36442;DHT22;64346;50.820;16.274;2022-12-11T00:09:31;0.50;99.90
36442;DHT22;64346;50.820;16.274;2022-12-11T00:11:58;0.60;99.90
36442;DHT22;64346;50.820;16.274;2022-12-11T00:14:25;0.50;99.90
36442;DHT22;64346;50.820;16.274;2022-12-11T00:16:52;0.50;99.90
36442;DHT22;64346;50.820;16.274;2022-12-11T00:19:22;0.50;99.90
36442;DHT22;64346;50.820;16.274;2022-12-11T00:21:51;0.50;99.90
36442;DHT22;64346;50.820;16.274;2022-12-11T00:24:19;0.60;99.90
36442;DHT22;64346;50.820;16.274;2022-12-11T00:26:46;0.60;99.90
36442;DHT22;64346;50.820;16.274;2022-12-11T00:29:13;0.60;99.90
36442;DHT22;64346;50.820;16.274;2022-12-11T00:31:41;0.70;99.90
36442;DHT22;64346;50.820;16.274;2022-12-11T00:34:09;0.90;99.90
36442;DHT22;64346;50.820;16.274;2022-12-11T00:36:37;1.10;99.90
36442;DHT22;64346;50.820;16.274;2022-12-11T00:39:05;1.20;99.90
36442;DHT22;64346;50.820;16.274;2022-12-11T00:41:51;1.30;99.90
36442;DHT22;64346;50.820;16.274;2022-12-11T00:44:19;1.40;99.90
36442;DHT22;64346;50.820;16.274;2022-12-11T00:46:46;1.50;99.90
36442;DHT22;64346;50.820;16.274;2022-12-11T00:49:14;1.50;99.90
36442;DHT22;64346;50.820;16.274;2022-12-11T00:51:41;1.40;99.90
36442;DHT22;64346;50.820;16.274;2022-12-11T00:54:08;1.30;99.90
36442;DHT22;64346;50.820;16.274;2022-12-11T00:56:35;1.20;99.90
36442;DHT22;64346;50.820;16.274;2022-12-11T00:59:03;1.10;99.90
36442;DHT22;64346;50.820;16.274;2022-12-11T01:01:33;1.20;99.90
36442;DHT22;64346;50.820;16.274;2022-12-11T01:04:00;0.90;99.90
36442;DHT22;64346;50.820;16.274;2022-12-11T01:06:28;1.20;99.90
36442;DHT22;64346;50.820;16.274;2022-12-11T01:08:56;0.90;99.90
36442;DHT22;64346;50.820;16.274;2022-12-11T01:11:23;1.00;99.90
36442;DHT22;64346;50.820;16.274;2022-12-11T01:13:53;1.20;99.90
36442;DHT22;64346;50.820;16.274;2022-12-11T01:16:20;1.30;99.90
36442;DHT22;64346;50.820;16.274;2022-12-11T01:18:50;0.50;99.90
36442;DHT22;64346;50.820;16.274;2022-12-11T01:21:18;2.30;99.90
36442;DHT22;64346;50.820;16.274;2022-12-11T01:23:48;0.30;99.90
36442;DHT22;64346;50.820;16.274;2022-12-11T01:26:16;1.40;99.90
36442;DHT22;64346;50.820;16.274;2022-12-11T01:28:44;0.20;99.90
36442;DHT22;64346;50.820;16.274;2022-12-11T01:31:13;0.30;99.90
36442;DHT22;64346;50.820;16.274;2022-12-11T01:33:41;0.80;99.90
36442;DHT22;64346;50.820;16.274;2022-12-11T01:36:14;1.30;99.90
36442;DHT22;64346;50.820;16.274;2022-12-11T01:38:42;0.20;99.90
36442;DHT22;64346;50.820;16.274;2022-12-11T01:41:10;0.10;99.90
36442;DHT22;64346;50.820;16.274;2022-12-11T01:46:24;1.50;99.90
36442;DHT22;64346;50.820;16.274;2022-12-11T01:48:52;2.00;99.90
36442;DHT22;64346;50.820;16.274;2022-12-11T01:51:20;2.10;99.90
36442;DHT22;64346;50.820;16.274;2022-12-11T01:54:00;0.60;99.90
36442;DHT22;64346;50.820;16.274;2022-12-11T01:56:33;0.00;99.90
36442;DHT22;64346;50.820;16.274;2022-12-11T01:59:02;-0.40;99.90
36442;DHT22;64346;50.820;16.274;2022-12-11T02:01:39;2.50;99.90
36442;DHT22;64346;50.820;16.274;2022-12-11T02:04:08;-0.10;99.90
36442;DHT22;64346;50.820;16.274;2022-12-11T02:06:38;-0.20;99.90
36442;DHT22;64346;50.820;16.274;2022-12-11T02:09:28;-0.20;99.90
36442;DHT22;64346;50.820;16.274;2022-12-11T02:18:02;-0.20;99.90
36442;DHT22;64346;50.820;16.274;2022-12-11T02:31:37;-0.10;99.90
36442;DHT22;64346;50.820;16.274;2022-12-11T02:37:33;0.00;99.90
36442;DHT22;64346;50.820;16.274;2022-12-11T02:40:31;1.50;99.90
36442;DHT22;64346;50.820;16.274;2022-12-11T02:43:04;-0.10;99.90
36442;DHT22;64346;50.820;16.274;2022-12-11T02:45:34;0.30;99.90
36442;DHT22;64346;50.820;16.274;2022-12-11T02:48:02;0.60;99.90
36442;DHT22;64346;50.820;16.274;2022-12-11T02:50:32;0.00;99.90
36442;DHT22;64346;50.820;16.274;2022-12-11T02:53:02;-0.10;99.90
36442;DHT22;64346;50.820;16.274;2022-12-11T02:55:35;0.80;99.90
36442;DHT22;64346;50.820;16.274;2022-12-11T02:58:15;0.00;99.90
36442;DHT22;64346;50.820;16.274;2022-12-11T03:03:28;-0.10;99.90
36442;DHT22;64346;50.820;16.274;2022-12-11T03:05:59;-0.20;99.90
36442;DHT22;64346;50.820;16.274;2022-12-11T03:08:26;-0.10;99.90
36442;DHT22;64346;50.820;16.274;2022-12-11T03:10:54;-0.20;99.90
36442;DHT22;64346;50.820;16.274;2022-12-11T03:13:21;0.80;99.90
36442;DHT22;64346;50.820;16.274;2022-12-11T03:18:33;-0.20;99.90
36442;DHT22;64346;50.820;16.274;2022-12-11T03:21:15;-0.30;99.90
36442;DHT22;64346;50.820;16.274;2022-12-11T03:23:54;0.40;99.90
36442;DHT22;64346;50.820;16.274;2022-12-11T03:26:23;-0.20;99.90
36442;DHT22;64346;50.820;16.274;2022-12-11T03:29:07;0.60;99.90
36442;DHT22;64346;50.820;16.274;2022-12-11T03:31:41;-0.20;99.90
36442;DHT22;64346;50.820;16.274;2022-12-11T03:37:15;-0.10;99.90
36442;DHT22;64346;50.820;16.274;2022-12-11T03:39:48;1.00;99.90
36442;DHT22;64346;50.820;16.274;2022-12-11T03:42:20;-1.10;99.90
36442;DHT22;64346;50.820;16.274;2022-12-11T03:44:51;0.00;99.90
36442;DHT22;64346;50.820;16.274;2022-12-11T03:47:22;0.20;99.90
36442;DHT22;64346;50.820;16.274;2022-12-11T03:49:52;-0.80;99.90
36442;DHT22;64346;50.820;16.274;2022-12-11T03:52:21;0.80;99.90
36442;DHT22;64346;50.820;16.274;2022-12-11T03:54:49;-0.10;99.90
36442;DHT22;64346;50.820;16.274;2022-12-11T03:57:20;-0.20;99.90
36442;DHT22;64346;50.820;16.274;2022-12-11T03:59:48;1.70;99.90
36442;DHT22;64346;50.820;16.274;2022-12-11T04:02:16;0.70;99.90
36442;DHT22;64346;50.820;16.274;2022-12-11T04:04:44;-0.20;99.90
36442;DHT22;64346;50.820;16.274;2022-12-11T04:07:11;0.00;99.90
36442;DHT22;64346;50.820;16.274;2022-12-11T04:09:38;-0.10;99.90
36442;DHT22;64346;50.820;16.274;2022-12-11T04:12:09;-0.40;99.90
36442;DHT22;64346;50.820;16.274;2022-12-11T04:14:36;-0.20;99.90
36442;DHT22;64346;50.820;16.274;2022-12-11T04:17:06;1.20;99.90
36442;DHT22;64346;50.820;16.274;2022-12-11T04:19:33;0.70;99.90
36442;DHT22;64346;50.820;16.274;2022-12-11T04:22:03;-0.10;99.90
36442;DHT22;64346;50.820;16.274;2022-12-11T04:24:31;1.30;99.90
36442;DHT22;64346;50.820;16.274;2022-12-11T04:26:59;-0.20;99.90
36442;DHT22;64346;50.820;16.274;2022-12-11T04:29:26;0.00;99.90
36442;DHT22;64346;50.820;16.274;2022-12-11T04:31:54;-0.40;99.90
36442;DHT22;64346;50.820;16.274;2022-12-11T04:34:22;0.30;99.90
36442;DHT22;64346;50.820;16.274;2022-12-11T04:36:49;0.80;99.90
36442;DHT22;64346;50.820;16.274;2022-12-11T04:39:19;-0.10;99.90
36442;DHT22;64346;50.820;16.274;2022-12-11T04:41:46;1.40;99.90
36442;DHT22;64346;50.820;16.274;2022-12-11T04:44:16;0.10;99.90
36442;DHT22;64346;50.820;16.274;2022-12-11T04:46:43;0.00;99.90
36442;DHT22;64346;50.820;16.274;2022-12-11T04:49:11;-0.50;99.90
36442;DHT22;64346;50.820;16.274;2022-12-11T04:51:38;-0.30;99.90
36442;DHT22;64346;50.820;16.274;2022-12-11T04:54:05;0.40;99.90
36442;DHT22;64346;50.820;16.274;2022-12-11T04:56:33;0.10;99.90
36442;DHT22;64346;50.820;16.274;2022-12-11T04:59:00;-0.20;99.90
36442;DHT22;64346;50.820;16.274;2022-12-11T05:01:27;-0.80;99.90
36442;DHT22;64346;50.820;16.274;2022-12-11T05:03:55;-0.30;99.90
36442;DHT22;64346;50.820;16.274;2022-12-11T05:06:25;0.20;99.90
36442;DHT22;64346;50.820;16.274;2022-12-11T05:08:52;0.60;99.90
36442;DHT22;64346;50.820;16.274;2022-12-11T05:11:19;-0.30;99.90
36442;DHT22;64346;50.820;16.274;2022-12-11T05:13:49;-0.40;99.90
36442;DHT22;64346;50.820;16.274;2022-12-11T05:16:18;-0.40;99.90
36442;DHT22;64346;50.820;16.274;2022-12-11T05:18:46;-0.40;99.90
36442;DHT22;64346;50.820;16.274;2022-12-11T05:21:16;-0.60;99.90
36442;DHT22;64346;50.820;16.274;2022-12-11T05:23:46;-0.30;99.90
36442;DHT22;64346;50.820;16.274;2022-12-11T05:26:18;2.20;99.90
36442;DHT22;64346;50.820;16.274;2022-12-11T05:28:50;1.10;99.90
36442;DHT22;64346;50.820;16.274;2022-12-11T05:31:23;-0.40;99.90
36442;DHT22;64346;50.820;16.274;2022-12-11T05:33:51;-0.40;99.90
36442;DHT22;64346;50.820;16.274;2022-12-11T05:36:22;1.60;99.90
36442;DHT22;64346;50.820;16.274;2022-12-11T05:38:50;-0.20;99.90
36442;DHT22;64346;50.820;16.274;2022-12-11T05:41:22;0.40;99.90
36442;DHT22;64346;50.820;16.274;2022-12-11T05:43:50;0.00;99.90
36442;DHT22;64346;50.820;16.274;2022-12-11T05:46:23;0.80;99.90
36442;DHT22;64346;50.820;16.274;2022-12-11T05:48:53;-0.20;99.90
36442;DHT22;64346;50.820;16.274;2022-12-11T05:51:21;-0.20;99.90
36442;DHT22;64346;50.820;16.274;2022-12-11T05:53:49;0.20;99.90
36442;DHT22;64346;50.820;16.274;2022-12-11T05:56:26;-0.10;99.90
36442;DHT22;64346;50.820;16.274;2022-12-11T05:58:55;-0.20;99.90
36442;DHT22;64346;50.820;16.274;2022-12-11T06:03:57;-0.20;99.90
36442;DHT22;64346;50.820;16.274;2022-12-11T06:06:26;0.40;99.90
36442;DHT22;64346;50.820;16.274;2022-12-11T06:08:55;-0.30;99.90
36442;DHT22;64346;50.820;16.274;2022-12-11T06:11:35;-0.40;99.90
36442;DHT22;64346;50.820;16.274;2022-12-11T06:14:05;0.40;99.90
36442;DHT22;64346;50.820;16.274;2022-12-11T06:16:32;-0.10;99.90
36442;DHT22;64346;50.820;16.274;2022-12-11T06:19:00;1.30;99.90
36442;DHT22;64346;50.820;16.274;2022-12-11T06:21:29;0.20;99.90
36442;DHT22;64346;50.820;16.274;2022-12-11T06:23:58;0.10;99.90
36442;DHT22;64346;50.820;16.274;2022-12-11T06:26:27;-0.10;99.90
36442;DHT22;64346;50.820;16.274;2022-12-11T06:28:54;0.50;99.90
36442;DHT22;64346;50.820;16.274;2022-12-11T06:31:24;0.40;99.90
36442;DHT22;64346;50.820;16.274;2022-12-11T06:33:51;0.80;99.90
36442;DHT22;64346;50.820;16.274;2022-12-11T06:36:21;-0.10;99.90
36442;DHT22;64346;50.820;16.274;2022-12-11T06:38:49;-0.20;99.90
36442;DHT22;64346;50.820;16.274;2022-12-11T06:41:17;-0.30;99.90
36442;DHT22;64346;50.820;16.274;2022-12-11T06:43:44;0.10;99.90
36442;DHT22;64346;50.820;16.274;2022-12-11T06:46:16;0.10;99.90
36442;DHT22;64346;50.820;16.274;2022-12-11T06:48:45;1.40;99.90
36442;DHT22;64346;50.820;16.274;2022-12-11T06:51:17;-0.10;99.90
36442;DHT22;64346;50.820;16.274;2022-12-11T06:53:44;-0.10;99.90
36442;DHT22;64346;50.820;16.274;2022-12-11T06:56:16;-0.20;99.90
36442;DHT22;64346;50.820;16.274;2022-12-11T06:58:44;0.10;99.90
36442;DHT22;64346;50.820;16.274;2022-12-11T07:01:21;-0.10;99.90
36442;DHT22;64346;50.820;16.274;2022-12-11T07:03:52;-0.10;99.90
36442;DHT22;64346;50.820;16.274;2022-12-11T07:06:20;-0.10;99.90
36442;DHT22;64346;50.820;16.274;2022-12-11T07:08:51;0.70;99.90
36442;DHT22;64346;50.820;16.274;2022-12-11T07:11:20;0.20;99.90
36442;DHT22;64346;50.820;16.274;2022-12-11T07:13:47;-0.30;99.90
36442;DHT22;64346;50.820;16.274;2022-12-11T07:16:18;0.00;99.90
36442;DHT22;64346;50.820;16.274;2022-12-11T07:18:47;-0.40;99.90
36442;DHT22;64346;50.820;16.274;2022-12-11T07:21:18;-0.20;99.90
36442;DHT22;64346;50.820;16.274;2022-12-11T07:23:48;-0.20;99.90
36442;DHT22;64346;50.820;16.274;2022-12-11T07:26:20;-0.20;99.90
36442;DHT22;64346;50.820;16.274;2022-12-11T07:28:47;-0.50;99.90
36442;DHT22;64346;50.820;16.274;2022-12-11T07:31:21;0.10;99.90
36442;DHT22;64346;50.820;16.274;2022-12-11T07:34:00;1.00;99.90
36442;DHT22;64346;50.820;16.274;2022-12-11T07:36:29;2.00;99.90
36442;DHT22;64346;50.820;16.274;2022-12-11T07:38:57;0.20;99.90
36442;DHT22;64346;50.820;16.274;2022-12-11T07:41:25;1.00;99.90
36442;DHT22;64346;50.820;16.274;2022-12-11T07:43:55;-0.30;99.90
36442;DHT22;64346;50.820;16.274;2022-12-11T07:46:26;-0.30;99.90
36442;DHT22;64346;50.820;16.274;2022-12-11T07:48:54;0.60;99.90
36442;DHT22;64346;50.820;16.274;2022-12-11T07:51:23;-0.30;99.90
36442;DHT22;64346;50.820;16.274;2022-12-11T07:53:50;0.50;99.90
36442;DHT22;64346;50.820;16.274;2022-12-11T07:56:20;0.00;99.90
36442;DHT22;64346;50.820;16.274;2022-12-11T07:58:50;-0.20;99.90
36442;DHT22;64346;50.820;16.274;2022-12-11T08:01:24;-0.30;99.90
36442;DHT22;64346;50.820;16.274;2022-12-11T08:03:53;-0.30;99.90
36442;DHT22;64346;50.820;16.274;2022-12-11T08:06:26;-0.30;99.90
36442;DHT22;64346;50.820;16.274;2022-12-11T08:08:55;-0.20;99.90
36442;DHT22;64346;50.820;16.274;2022-12-11T08:11:23;-0.20;99.90
36442;DHT22;64346;50.820;16.274;2022-12-11T08:13:51;-0.10;99.90
36442;DHT22;64346;50.820;16.274;2022-12-11T08:16:18;-0.20;99.90
36442;DHT22;64346;50.820;16.274;2022-12-11T08:18:46;0.00;99.90
36442;DHT22;64346;50.820;16.274;2022-12-11T08:21:19;0.80;99.90
36442;DHT22;64346;50.820;16.274;2022-12-11T08:23:47;-0.20;99.90
36442;DHT22;64346;50.820;16.274;2022-12-11T08:26:21;-0.20;99.90
36442;DHT22;64346;50.820;16.274;2022-12-11T08:28:48;-0.20;99.90
36442;DHT22;64346;50.820;16.274;2022-12-11T08:31:16;0.40;99.90
36442;DHT22;64346;50.820;16.274;2022-12-11T08:33:44;-0.20;99.90
36442;DHT22;64346;50.820;16.274;2022-12-11T08:36:13;0.30;99.90
36442;DHT22;64346;50.820;16.274;2022-12-11T08:38:41;0.20;99.90
36442;DHT22;64346;50.820;16.274;2022-12-11T08:43:49;-0.10;99.90
36442;DHT22;64346;50.820;16.274;2022-12-11T08:46:16;0.00;99.90
36442;DHT22;64346;50.820;16.274;2022-12-11T08:48:46;0.00;99.90
36442;DHT22;64346;50.820;16.274;2022-12-11T08:51:16;0.10;99.90
36442;DHT22;64346;50.820;16.274;2022-12-11T08:53:43;0.90;99.90
36442;DHT22;64346;50.820;16.274;2022-12-11T08:56:13;0.30;99.90
36442;DHT22;64346;50.820;16.274;2022-12-11T08:58:41;0.10;99.90
36442;DHT22;64346;50.820;16.274;2022-12-11T09:01:17;0.10;99.90
36442;DHT22;64346;50.820;16.274;2022-12-11T09:03:48;0.10;99.90
36442;DHT22;64346;50.820;16.274;2022-12-11T09:06:19;0.60;99.90
36442;DHT22;64346;50.820;16.274;2022-12-11T09:08:48;-0.10;99.90
36442;DHT22;64346;50.820;16.274;2022-12-11T09:11:22;-0.10;99.90
36442;DHT22;64346;50.820;16.274;2022-12-11T09:13:52;0.20;99.90
36442;DHT22;64346;50.820;16.274;2022-12-11T09:16:21;-0.20;99.90
36442;DHT22;64346;50.820;16.274;2022-12-11T09:18:53;0.10;99.90
36442;DHT22;64346;50.820;16.274;2022-12-11T09:21:23;-0.20;99.90
36442;DHT22;64346;50.820;16.274;2022-12-11T09:23:58;0.10;99.90
36442;DHT22;64346;50.820;16.274;2022-12-11T09:26:26;-0.30;99.90
36442;DHT22;64346;50.820;16.274;2022-12-11T09:28:54;-0.30;99.90
36442;DHT22;64346;50.820;16.274;2022-12-11T09:31:27;-0.30;99.90
36442;DHT22;64346;50.820;16.274;2022-12-11T09:33:57;-0.10;99.90
36442;DHT22;64346;50.820;16.274;2022-12-11T09:36:25;-0.20;99.90
36442;DHT22;64346;50.820;16.274;2022-12-11T09:38:53;0.60;99.90
36442;DHT22;64346;50.820;16.274;2022-12-11T09:46:33;0.00;99.90
36442;DHT22;64346;50.820;16.274;2022-12-11T09:49:16;0.00;99.90
36442;DHT22;64346;50.820;16.274;2022-12-11T09:51:53;-0.10;99.90
36442;DHT22;64346;50.820;16.274;2022-12-11T09:54:25;-0.10;99.90
36442;DHT22;64346;50.820;16.274;2022-12-11T09:56:59;-0.10;99.90
36442;DHT22;64346;50.820;16.274;2022-12-11T10:05:16;-0.10;99.90
36442;DHT22;64346;50.820;16.274;2022-12-11T10:07:49;0.00;99.90
36442;DHT22;64346;50.820;16.274;2022-12-11T10:13:16;0.40;99.90
36442;DHT22;64346;50.820;16.274;2022-12-11T10:15:53;1.40;99.90
36442;DHT22;64346;50.820;16.274;2022-12-11T10:18:31;0.70;99.90
36442;DHT22;64346;50.820;16.274;2022-12-11T10:21:01;0.70;99.90
36442;DHT22;64346;50.820;16.274;2022-12-11T10:23:39;0.70;99.90
36442;DHT22;64346;50.820;16.274;2022-12-11T10:26:19;0.30;99.90
36442;DHT22;64346;50.820;16.274;2022-12-11T10:28:50;0.90;99.90
36442;DHT22;64346;50.820;16.274;2022-12-11T10:34:32;0.90;99.90
36442;DHT22;64346;50.820;16.274;2022-12-11T10:37:00;0.90;99.90
36442;DHT22;64346;50.820;16.274;2022-12-11T10:39:30;1.00;99.90
36442;DHT22;64346;50.820;16.274;2022-12-11T10:41:57;1.10;99.90
36442;DHT22;64346;50.820;16.274;2022-12-11T10:44:29;1.10;99.90
36442;DHT22;64346;50.820;16.274;2022-12-11T10:47:14;1.20;99.90
36442;DHT22;64346;50.820;16.274;2022-12-11T10:49:53;1.00;99.90
36442;DHT22;64346;50.820;16.274;2022-12-11T10:52:26;0.90;99.90
36442;DHT22;64346;50.820;16.274;2022-12-11T10:57:28;0.80;99.90
36442;DHT22;64346;50.820;16.274;2022-12-11T10:59:57;2.20;99.90
36442;DHT22;64346;50.820;16.274;2022-12-11T11:02:28;0.20;99.90
36442;DHT22;64346;50.820;16.274;2022-12-11T11:04:59;2.10;99.90
36442;DHT22;64346;50.820;16.274;2022-12-11T11:07:31;1.80;99.90
36442;DHT22;64346;50.820;16.274;2022-12-11T11:10:17;1.60;99.90
36442;DHT22;64346;50.820;16.274;2022-12-11T11:12:48;1.70;99.90
36442;DHT22;64346;50.820;16.274;2022-12-11T11:15:25;1.50;99.90
36442;DHT22;64346;50.820;16.274;2022-12-11T11:17:55;1.90;99.90
36442;DHT22;64346;50.820;16.274;2022-12-11T11:20:26;1.10;99.90
36442;DHT22;64346;50.820;16.274;2022-12-11T11:22:56;0.80;99.90
36442;DHT22;64346;50.820;16.274;2022-12-11T11:25:27;0.60;99.90
36442;DHT22;64346;50.820;16.274;2022-12-11T11:28:01;0.50;99.90
36442;DHT22;64346;50.820;16.274;2022-12-11T11:30:34;0.60;99.90
36442;DHT22;64346;50.820;16.274;2022-12-11T11:33:13;1.60;99.90
36442;DHT22;64346;50.820;16.274;2022-12-11T11:35:54;0.50;99.90
36442;DHT22;64346;50.820;16.274;2022-12-11T11:38:35;0.40;99.90
36442;DHT22;64346;50.820;16.274;2022-12-11T11:48:49;0.70;99.90
36442;DHT22;64346;50.820;16.274;2022-12-11T11:54:42;0.70;99.90
36442;DHT22;64346;50.820;16.274;2022-12-11T11:57:22;0.70;99.90
36442;DHT22;64346;50.820;16.274;2022-12-11T11:59:56;0.80;99.90
36442;DHT22;64346;50.820;16.274;2022-12-11T12:02:24;0.70;99.90
36442;DHT22;64346;50.820;16.274;2022-12-11T12:04:52;0.40;99.90
36442;DHT22;64346;50.820;16.274;2022-12-11T12:13:11;0.20;99.90
36442;DHT22;64346;50.820;16.274;2022-12-11T12:16:00;0.70;99.90
36442;DHT22;64346;50.820;16.274;2022-12-11T12:21:35;0.20;99.90
36442;DHT22;64346;50.820;16.274;2022-12-11T12:25:02;0.30;99.90
36442;DHT22;64346;50.820;16.274;2022-12-11T12:27:21;0.30;99.90
36442;DHT22;64346;50.820;16.274;2022-12-11T12:30:19;0.40;99.90
36442;DHT22;64346;50.820;16.274;2022-12-11T12:35:55;0.20;99.90
36442;DHT22;64346;50.820;16.274;2022-12-11T12:49:03;-0.30;99.90
36442;DHT22;64346;50.820;16.274;2022-12-11T12:51:33;-0.40;99.90
36442;DHT22;64346;50.820;16.274;2022-12-11T12:54:02;0.40;99.90
36442;DHT22;64346;50.820;16.274;2022-12-11T12:56:38;-0.60;99.90
36442;DHT22;64346;50.820;16.274;2022-12-11T12:59:25;-0.60;99.90
36442;DHT22;64346;50.820;16.274;2022-12-11T13:01:55;-0.70;99.90
36442;DHT22;64346;50.820;16.274;2022-12-11T13:04:43;-0.70;99.90
36442;DHT22;64346;50.820;16.274;2022-12-11T13:07:28;-0.40;99.90
36442;DHT22;64346;50.820;16.274;2022-12-11T13:12:33;-0.70;99.90
36442;DHT22;64346;50.820;16.274;2022-12-11T13:15:21;-0.60;99.90
36442;DHT22;64346;50.820;16.274;2022-12-11T13:17:49;-0.70;99.90
36442;DHT22;64346;50.820;16.274;2022-12-11T13:20:22;-0.50;99.90
36442;DHT22;64346;50.820;16.274;2022-12-11T13:25:51;-0.80;99.90
36442;DHT22;64346;50.820;16.274;2022-12-11T13:28:28;-0.80;99.90
36442;DHT22;64346;50.820;16.274;2022-12-11T13:33:47;-0.50;99.90
36442;DHT22;64346;50.820;16.274;2022-12-11T13:36:33;-0.40;99.90
36442;DHT22;64346;50.820;16.274;2022-12-11T13:39:03;-0.40;99.90
36442;DHT22;64346;50.820;16.274;2022-12-11T13:41:34;-0.50;99.90
36442;DHT22;64346;50.820;16.274;2022-12-11T13:44:04;-0.40;99.90
36442;DHT22;64346;50.820;16.274;2022-12-11T13:46:35;-0.60;99.90
36442;DHT22;64346;50.820;16.274;2022-12-11T13:49:05;-0.70;99.90
36442;DHT22;64346;50.820;16.274;2022-12-11T13:51:34;-0.70;99.90
36442;DHT22;64346;50.820;16.274;2022-12-11T13:56:33;0.00;99.90
36442;DHT22;64346;50.820;16.274;2022-12-11T13:59:00;0.60;99.90
36442;DHT22;64346;50.820;16.274;2022-12-11T14:01:32;0.50;99.90
36442;DHT22;64346;50.820;16.274;2022-12-11T14:04:08;-0.70;99.90
36442;DHT22;64346;50.820;16.274;2022-12-11T14:06:39;-0.90;99.90
36442;DHT22;64346;50.820;16.274;2022-12-11T14:09:07;1.00;99.90
36442;DHT22;64346;50.820;16.274;2022-12-11T14:11:36;0.20;99.90
36442;DHT22;64346;50.820;16.274;2022-12-11T14:14:13;-1.10;99.90
36442;DHT22;64346;50.820;16.274;2022-12-11T14:16:49;-1.40;99.90
36442;DHT22;64346;50.820;16.274;2022-12-11T14:19:19;-1.10;99.90
36442;DHT22;64346;50.820;16.274;2022-12-11T14:21:59;-1.10;99.90
36442;DHT22;64346;50.820;16.274;2022-12-11T14:24:27;-1.10;99.90
36442;DHT22;64346;50.820;16.274;2022-12-11T14:26:56;-0.20;99.90
36442;DHT22;64346;50.820;16.274;2022-12-11T14:29:29;-0.50;99.90
36442;DHT22;64346;50.820;16.274;2022-12-11T14:32:01;0.20;99.90
36442;DHT22;64346;50.820;16.274;2022-12-11T14:34:41;-1.10;99.90
36442;DHT22;64346;50.820;16.274;2022-12-11T14:37:09;-0.30;99.90
36442;DHT22;64346;50.820;16.274;2022-12-11T14:39:56;-1.20;99.90
36442;DHT22;64346;50.820;16.274;2022-12-11T14:42:28;-1.20;99.90
36442;DHT22;64346;50.820;16.274;2022-12-11T14:45:18;-0.90;99.90
36442;DHT22;64346;50.820;16.274;2022-12-11T14:47:48;-0.80;99.90
36442;DHT22;64346;50.820;16.274;2022-12-11T14:50:20;-0.50;99.90
36442;DHT22;64346;50.820;16.274;2022-12-11T14:52:54;-1.20;99.90
36442;DHT22;64346;50.820;16.274;2022-12-11T14:55:25;-0.10;99.90
36442;DHT22;64346;50.820;16.274;2022-12-11T14:58:27;-1.00;99.90
36442;DHT22;64346;50.820;16.274;2022-12-11T15:01:20;-1.30;99.90
36442;DHT22;64346;50.820;16.274;2022-12-11T15:03:47;-1.20;99.90
36442;DHT22;64346;50.820;16.274;2022-12-11T15:06:33;-0.60;99.90
36442;DHT22;64346;50.820;16.274;2022-12-11T15:09:27;-0.40;99.90
36442;DHT22;64346;50.820;16.274;2022-12-11T15:12:17;-1.20;99.90
36442;DHT22;64346;50.820;16.274;2022-12-11T15:14:55;-1.30;99.90
36442;DHT22;64346;50.820;16.274;2022-12-11T15:17:24;-0.50;99.90
36442;DHT22;64346;50.820;16.274;2022-12-11T15:19:59;0.20;99.90
36442;DHT22;64346;50.820;16.274;2022-12-11T15:22:30;0.30;99.90
36442;DHT22;64346;50.820;16.274;2022-12-11T15:24:59;-1.20;99.90
36442;DHT22;64346;50.820;16.274;2022-12-11T15:27:35;-1.20;99.90
36442;DHT22;64346;50.820;16.274;2022-12-11T15:32:46;-1.20;99.90
36442;DHT22;64346;50.820;16.274;2022-12-11T15:35:22;-0.70;99.90
36442;DHT22;64346;50.820;16.274;2022-12-11T15:37:57;0.00;99.90
36442;DHT22;64346;50.820;16.274;2022-12-11T15:40:27;-0.10;99.90
36442;DHT22;64346;50.820;16.274;2022-12-11T15:42:55;-0.50;99.90
36442;DHT22;64346;50.820;16.274;2022-12-11T15:45:35;-1.10;99.90
36442;DHT22;64346;50.820;16.274;2022-12-11T15:48:03;-1.40;99.90
36442;DHT22;64346;50.820;16.274;2022-12-11T15:50:30;-1.10;99.90
36442;DHT22;64346;50.820;16.274;2022-12-11T15:53:00;-1.20;99.90
36442;DHT22;64346;50.820;16.274;2022-12-11T15:55:42;-1.30;99.90
36442;DHT22;64346;50.820;16.274;2022-12-11T15:58:15;-1.30;99.90
36442;DHT22;64346;50.820;16.274;2022-12-11T16:00:43;-1.30;99.90
36442;DHT22;64346;50.820;16.274;2022-12-11T16:03:35;-1.30;99.90
36442;DHT22;64346;50.820;16.274;2022-12-11T16:06:05;-1.30;99.90
36442;DHT22;64346;50.820;16.274;2022-12-11T16:08:35;-1.30;99.90
36442;DHT22;64346;50.820;16.274;2022-12-11T16:11:02;-1.20;99.90
36442;DHT22;64346;50.820;16.274;2022-12-11T16:13:32;-1.20;99.90
36442;DHT22;64346;50.820;16.274;2022-12-11T16:15:59;-1.20;99.90
36442;DHT22;64346;50.820;16.274;2022-12-11T16:18:29;-1.20;99.90
36442;DHT22;64346;50.820;16.274;2022-12-11T16:20:57;-1.10;99.90
36442;DHT22;64346;50.820;16.274;2022-12-11T16:23:34;-1.20;99.90
36442;DHT22;64346;50.820;16.274;2022-12-11T16:26:06;-1.20;99.90
36442;DHT22;64346;50.820;16.274;2022-12-11T16:28:33;-1.20;99.90
36442;DHT22;64346;50.820;16.274;2022-12-11T16:31:01;-1.30;99.90
36442;DHT22;64346;50.820;16.274;2022-12-11T16:33:30;-1.30;99.90
36442;DHT22;64346;50.820;16.274;2022-12-11T16:35:59;-1.30;99.90
36442;DHT22;64346;50.820;16.274;2022-12-11T16:38:28;-1.30;99.90
36442;DHT22;64346;50.820;16.274;2022-12-11T16:41:21;-1.30;99.90
36442;DHT22;64346;50.820;16.274;2022-12-11T16:43:48;-1.30;99.90
36442;DHT22;64346;50.820;16.274;2022-12-11T16:46:20;-1.40;99.90
36442;DHT22;64346;50.820;16.274;2022-12-11T16:48:49;-1.40;99.90
36442;DHT22;64346;50.820;16.274;2022-12-11T16:51:18;-1.40;99.90
36442;DHT22;64346;50.820;16.274;2022-12-11T16:53:48;-1.40;99.90
36442;DHT22;64346;50.820;16.274;2022-12-11T16:56:16;-1.40;99.90
36442;DHT22;64346;50.820;16.274;2022-12-11T16:58:43;-1.40;99.90
36442;DHT22;64346;50.820;16.274;2022-12-11T17:01:12;-1.40;99.90
36442;DHT22;64346;50.820;16.274;2022-12-11T17:03:43;-1.50;99.90
36442;DHT22;64346;50.820;16.274;2022-12-11T17:06:15;-1.40;99.90
36442;DHT22;64346;50.820;16.274;2022-12-11T17:08:43;-1.50;99.90
36442;DHT22;64346;50.820;16.274;2022-12-11T17:11:15;-1.50;99.90
36442;DHT22;64346;50.820;16.274;2022-12-11T17:13:43;-1.60;99.90
36442;DHT22;64346;50.820;16.274;2022-12-11T17:16:30;-1.60;99.90
36442;DHT22;64346;50.820;16.274;2022-12-11T17:19:02;-1.60;99.90
36442;DHT22;64346;50.820;16.274;2022-12-11T17:21:30;-1.60;99.90
36442;DHT22;64346;50.820;16.274;2022-12-11T17:23:57;-1.60;99.90
36442;DHT22;64346;50.820;16.274;2022-12-11T17:26:24;-1.60;99.90
36442;DHT22;64346;50.820;16.274;2022-12-11T17:28:52;-1.70;99.90
36442;DHT22;64346;50.820;16.274;2022-12-11T17:31:20;-1.70;99.90
36442;DHT22;64346;50.820;16.274;2022-12-11T17:33:57;-1.70;99.90